createdAt,value
2017-06-22T00:00:52.582Z,15.80
2017-06-22T00:03:21.138Z,15.80
2017-06-22T00:05:49.337Z,15.80
2017-06-22T00:08:17.494Z,15.80
2017-06-22T00:10:46.321Z,15.80
2017-06-22T00:13:14.552Z,15.80
2017-06-22T00:15:42.734Z,15.80
2017-06-22T00:18:11.379Z,15.80
2017-06-22T00:20:39.550Z,15.80
2017-06-22T00:23:08.526Z,15.80
2017-06-22T00:25:37.042Z,15.80
2017-06-22T00:28:05.345Z,15.80
2017-06-22T00:30:33.555Z,15.70
2017-06-22T00:33:02.114Z,15.70
2017-06-22T00:35:30.294Z,15.70
2017-06-22T00:37:58.485Z,15.70
2017-06-22T00:40:27.040Z,15.70
2017-06-22T00:42:55.302Z,15.70
2017-06-22T00:45:23.570Z,15.70
2017-06-22T00:47:52.201Z,15.70
2017-06-22T00:50:20.373Z,15.70
2017-06-22T00:52:48.579Z,15.60
2017-06-22T00:55:17.163Z,15.60
2017-06-22T00:57:45.391Z,15.60
2017-06-22T01:00:13.590Z,15.60
2017-06-22T01:02:43.058Z,15.50
2017-06-22T01:05:11.264Z,15.50
2017-06-22T01:07:40.202Z,15.60
2017-06-22T01:10:08.807Z,15.50
2017-06-22T01:12:36.985Z,15.60
2017-06-22T01:15:05.161Z,15.60
2017-06-22T01:17:33.834Z,15.50
2017-06-22T01:20:02.003Z,15.50
2017-06-22T01:22:30.173Z,15.40
2017-06-22T01:24:58.850Z,15.40
2017-06-22T01:27:27.030Z,15.40
2017-06-22T01:29:55.227Z,15.30
2017-06-22T01:32:23.874Z,15.40
2017-06-22T01:34:52.049Z,15.30
2017-06-22T01:37:20.318Z,15.30
2017-06-22T01:39:48.833Z,15.30
2017-06-22T01:42:17.107Z,15.30
2017-06-22T01:44:45.351Z,15.30
2017-06-22T01:47:13.977Z,15.30
2017-06-22T01:49:42.156Z,15.30
2017-06-22T01:52:11.087Z,15.30
2017-06-22T01:54:39.790Z,15.30
2017-06-22T01:57:07.957Z,15.20
2017-06-22T01:59:36.133Z,15.30
2017-06-22T02:02:04.730Z,15.20
2017-06-22T02:04:32.932Z,15.20
2017-06-22T02:07:01.114Z,15.20
2017-06-22T02:09:30.588Z,15.20
2017-06-22T02:11:58.779Z,15.20
2017-06-22T02:14:26.953Z,15.10
2017-06-22T02:16:55.515Z,15.10
2017-06-22T02:19:23.726Z,15.10
2017-06-22T02:21:52.663Z,15.10
2017-06-22T02:24:21.293Z,15.10
2017-06-22T02:26:49.478Z,15.10
2017-06-22T02:29:17.675Z,15.10
2017-06-22T02:31:46.298Z,15.10
2017-06-22T02:34:14.543Z,15.10
2017-06-22T02:36:42.762Z,15.10
2017-06-22T02:39:11.319Z,15.10
2017-06-22T02:41:39.511Z,15.10
2017-06-22T02:44:07.802Z,15.10
2017-06-22T02:46:37.081Z,15.00
2017-06-22T02:49:05.254Z,15.00
2017-06-22T02:51:33.528Z,15.00
2017-06-22T02:54:02.118Z,15.00
2017-06-22T02:56:30.301Z,15.00
2017-06-22T02:58:58.554Z,15.00
2017-06-22T03:01:27.228Z,15.00
2017-06-22T03:03:55.510Z,14.90
2017-06-22T03:06:23.762Z,15.00
2017-06-22T03:08:52.312Z,15.00
2017-06-22T03:11:20.497Z,15.00
2017-06-22T03:13:48.725Z,14.90
2017-06-22T03:16:17.278Z,15.00
2017-06-22T03:18:45.447Z,15.00
2017-06-22T03:21:13.628Z,15.00
2017-06-22T03:23:42.207Z,15.00
2017-06-22T03:26:10.890Z,15.10
2017-06-22T03:28:39.073Z,15.10
2017-06-22T03:31:07.662Z,15.10
2017-06-22T03:33:35.846Z,15.20
2017-06-22T03:36:04.190Z,15.30
2017-06-22T03:38:32.725Z,15.30
2017-06-22T03:41:01.695Z,15.40
2017-06-22T03:43:29.849Z,15.40
2017-06-22T03:45:58.472Z,15.50
2017-06-22T03:48:27.418Z,15.70
2017-06-22T03:50:55.624Z,15.70
2017-06-22T03:53:24.254Z,15.80
2017-06-22T03:55:52.423Z,16.00
2017-06-22T03:58:20.658Z,16.10
2017-06-22T04:00:49.225Z,16.30
2017-06-22T04:03:17.393Z,16.30
2017-06-22T04:05:45.574Z,16.40
2017-06-22T04:08:14.166Z,16.60
2017-06-22T04:10:42.393Z,16.80
2017-06-22T04:13:10.567Z,16.90
2017-06-22T04:15:39.161Z,17.00
2017-06-22T04:18:07.374Z,17.10
2017-06-22T04:20:35.654Z,17.10
2017-06-22T04:23:05.009Z,17.20
2017-06-22T04:25:33.207Z,17.20
2017-06-22T04:28:01.386Z,17.40
2017-06-22T04:30:29.942Z,17.40
2017-06-22T04:32:58.130Z,17.60
2017-06-22T04:35:26.328Z,17.70
2017-06-22T04:37:54.904Z,17.90
2017-06-22T04:40:23.068Z,17.90
2017-06-22T04:42:51.277Z,18.00
2017-06-22T04:45:19.815Z,18.20
2017-06-22T04:47:48.016Z,18.40
2017-06-22T04:50:16.731Z,18.60
2017-06-22T04:52:45.348Z,18.50
2017-06-22T04:55:13.534Z,18.60
2017-06-22T04:57:41.730Z,18.60
2017-06-22T05:00:11.122Z,18.30
2017-06-22T05:02:39.304Z,18.30
2017-06-22T05:05:08.444Z,18.30
2017-06-22T05:20:37.051Z,18.30
2017-06-22T05:23:05.216Z,18.60
2017-06-22T05:25:33.462Z,18.60
2017-06-22T05:28:02.079Z,18.60
2017-06-22T05:30:30.244Z,18.60
2017-06-22T05:32:58.419Z,18.60
2017-06-22T05:35:26.950Z,18.60
2017-06-22T05:37:55.151Z,18.60
2017-06-22T05:40:23.416Z,18.70
2017-06-22T05:42:52.037Z,18.90
2017-06-22T05:45:20.235Z,18.90
2017-06-22T05:47:49.195Z,19.10
2017-06-22T05:50:17.788Z,19.10
2017-06-22T05:52:46.020Z,19.10
2017-06-22T05:55:14.261Z,19.20
2017-06-22T05:57:43.633Z,19.40
2017-06-22T06:00:11.813Z,19.40
2017-06-22T06:02:40.053Z,20.00
2017-06-22T06:05:08.786Z,21.10
2017-06-22T06:07:37.929Z,23.30
2017-06-22T06:10:06.098Z,23.30
2017-06-22T06:12:34.713Z,23.40
2017-06-22T06:15:02.944Z,23.60
2017-06-22T06:17:31.152Z,23.70
2017-06-22T06:19:59.772Z,23.70
2017-06-22T06:22:28.718Z,22.90
2017-06-22T06:24:56.905Z,22.80
2017-06-22T06:27:25.467Z,22.50
2017-06-22T06:29:53.714Z,22.30
2017-06-22T06:32:21.920Z,22.10
2017-06-22T06:34:50.681Z,22.10
2017-06-22T06:37:18.887Z,21.90
2017-06-22T06:39:47.069Z,21.80
2017-06-22T06:42:15.698Z,21.80
2017-06-22T06:44:43.885Z,21.60
2017-06-22T06:47:12.055Z,21.50
2017-06-22T06:49:40.687Z,21.40
2017-06-22T06:52:09.042Z,21.50
2017-06-22T06:54:37.285Z,21.50
2017-06-22T06:57:05.835Z,21.50
2017-06-22T06:59:34.019Z,21.40
2017-06-22T07:02:03.029Z,21.30
2017-06-22T07:04:31.739Z,21.30
2017-06-22T07:07:00.535Z,21.40
2017-06-22T07:09:29.016Z,21.40
2017-06-22T07:11:57.622Z,21.40
2017-06-22T07:14:25.793Z,21.60
2017-06-22T07:16:54.736Z,21.90
2017-06-22T07:19:23.354Z,22.00
2017-06-22T07:21:51.511Z,22.20
2017-06-22T07:24:19.687Z,22.40
2017-06-22T07:26:48.193Z,22.70
2017-06-22T07:29:16.372Z,22.80
2017-06-22T07:31:44.530Z,22.90
2017-06-22T07:34:13.130Z,23.00
2017-06-22T07:36:41.341Z,23.10
2017-06-22T07:39:09.643Z,23.40
2017-06-22T07:41:38.243Z,23.50
2017-06-22T07:44:06.465Z,23.70
2017-06-22T07:46:35.437Z,23.70
2017-06-22T07:49:03.994Z,23.60
2017-06-22T07:51:32.159Z,23.60
2017-06-22T07:54:00.378Z,23.50
2017-06-22T07:56:29.772Z,23.50
2017-06-22T07:58:58.001Z,23.50
2017-06-22T08:01:26.229Z,23.80
2017-06-22T08:03:55.666Z,24.10
2017-06-22T08:06:23.853Z,24.10
2017-06-22T08:08:52.048Z,24.30
2017-06-22T08:11:20.616Z,24.30
2017-06-22T08:13:48.788Z,24.30
2017-06-22T08:16:16.973Z,24.40
2017-06-22T08:18:45.566Z,24.50
2017-06-22T08:21:13.751Z,24.50
2017-06-22T08:23:42.078Z,24.60
2017-06-22T08:26:11.119Z,24.60
2017-06-22T08:28:40.085Z,24.60
2017-06-22T08:31:08.259Z,24.60
2017-06-22T08:33:36.962Z,24.60
2017-06-22T08:36:05.144Z,24.50
2017-06-22T08:38:33.350Z,24.40
2017-06-22T08:41:02.176Z,24.40
2017-06-22T08:43:30.367Z,24.40
2017-06-22T08:45:58.647Z,24.40
2017-06-22T08:48:27.209Z,24.50
2017-06-22T08:50:55.392Z,24.60
2017-06-22T08:53:23.595Z,24.60
2017-06-22T08:55:52.888Z,24.30
2017-06-22T08:58:21.811Z,24.10
2017-06-22T09:00:49.984Z,24.10
2017-06-22T09:03:18.526Z,23.90
2017-06-22T09:05:47.530Z,23.20
2017-06-22T09:08:16.461Z,22.90
2017-06-22T09:10:44.972Z,22.90
2017-06-22T09:13:13.145Z,22.60
2017-06-22T09:15:42.093Z,22.40
2017-06-22T09:18:10.621Z,22.20
2017-06-22T09:20:38.817Z,21.90
2017-06-22T09:23:07.732Z,21.70
2017-06-22T09:25:36.282Z,21.70
2017-06-22T09:28:04.497Z,21.70
2017-06-22T09:30:32.747Z,21.50
2017-06-22T09:33:02.117Z,21.10
2017-06-22T09:35:30.307Z,21.00
2017-06-22T09:37:58.504Z,20.70
2017-06-22T09:40:27.237Z,20.50
2017-06-22T09:42:55.455Z,20.30
2017-06-22T09:45:23.649Z,19.80
2017-06-22T09:47:52.220Z,18.70
2017-06-22T09:50:20.420Z,17.40
2017-06-22T09:52:48.600Z,16.80
2017-06-22T09:55:17.540Z,16.50
2017-06-22T09:57:45.738Z,16.40
2017-06-22T10:00:13.919Z,16.30
2017-06-22T10:02:42.459Z,16.30
2017-06-22T10:05:10.633Z,16.30
2017-06-22T10:07:38.807Z,16.30
2017-06-22T10:10:07.412Z,16.30
2017-06-22T10:12:36.455Z,16.40
2017-06-22T10:15:04.651Z,16.40
2017-06-22T10:17:33.315Z,16.50
2017-06-22T10:20:01.526Z,16.60
2017-06-22T10:22:29.748Z,16.60
2017-06-22T10:24:58.388Z,16.70
2017-06-22T10:27:27.357Z,16.70
2017-06-22T10:29:55.582Z,16.70
2017-06-22T10:32:24.205Z,16.80
2017-06-22T10:34:52.414Z,16.80
2017-06-22T10:37:21.380Z,16.80
2017-06-22T10:39:49.949Z,16.80
2017-06-22T10:42:18.132Z,16.80
2017-06-22T10:44:46.324Z,16.90
2017-06-22T10:47:15.690Z,17.10
2017-06-22T10:49:44.082Z,17.00
2017-06-22T10:52:12.282Z,17.10
2017-06-22T10:54:41.932Z,17.20
2017-06-22T10:57:10.098Z,17.20
2017-06-22T10:59:38.279Z,17.30
2017-06-22T11:02:06.841Z,17.40
2017-06-22T11:04:35.070Z,17.60
2017-06-22T11:07:04.852Z,18.00
2017-06-22T11:09:33.452Z,18.00
2017-06-22T11:12:01.644Z,18.20
2017-06-22T11:14:29.887Z,18.40
2017-06-22T11:16:58.455Z,18.50
2017-06-22T11:19:26.637Z,18.60
2017-06-22T11:21:54.830Z,18.80
2017-06-22T11:24:23.411Z,18.80
2017-06-22T11:26:51.586Z,19.00
2017-06-22T11:29:19.928Z,19.10
2017-06-22T11:31:48.551Z,19.20
2017-06-22T11:34:16.759Z,19.40
2017-06-22T11:36:46.574Z,19.50
2017-06-22T11:39:15.228Z,19.50
2017-06-22T11:41:43.405Z,19.60
2017-06-22T11:44:11.584Z,19.70
2017-06-22T11:46:40.122Z,19.70
2017-06-22T11:49:08.310Z,19.60
2017-06-22T11:51:36.492Z,19.60
2017-06-22T11:54:05.680Z,19.80
2017-06-22T11:56:33.915Z,20.00
2017-06-22T11:59:02.083Z,20.20
2017-06-22T12:01:30.707Z,20.30
2017-06-22T12:03:58.890Z,20.30
2017-06-22T12:06:27.096Z,20.30
2017-06-22T12:08:56.470Z,20.30
2017-06-22T12:11:24.655Z,20.20
2017-06-22T12:13:52.851Z,20.30
2017-06-22T12:16:21.503Z,20.40
2017-06-22T12:18:49.713Z,20.60
2017-06-22T12:21:17.942Z,20.70
2017-06-22T12:23:47.342Z,21.00
2017-06-22T12:26:15.549Z,21.00
2017-06-22T12:28:44.499Z,21.30
2017-06-22T12:31:13.243Z,21.30
2017-06-22T12:33:41.421Z,21.50
2017-06-22T12:36:09.682Z,21.60
2017-06-22T12:38:39.043Z,21.80
2017-06-22T12:41:07.236Z,21.80
2017-06-22T12:43:35.435Z,21.80
2017-06-22T12:46:04.021Z,21.90
2017-06-22T12:48:32.198Z,22.00
2017-06-22T12:51:00.360Z,22.10
2017-06-22T12:53:29.715Z,22.50
2017-06-22T12:55:57.929Z,22.50
2017-06-22T12:58:26.906Z,22.90
2017-06-22T13:00:56.202Z,23.10
2017-06-22T13:03:24.399Z,23.00
2017-06-22T13:05:52.551Z,23.20
2017-06-22T13:08:21.849Z,23.50
2017-06-22T13:10:50.796Z,23.50
2017-06-22T13:13:18.967Z,23.40
2017-06-22T13:15:47.703Z,23.40
2017-06-22T13:18:16.690Z,23.50
2017-06-22T13:20:45.199Z,23.50
2017-06-22T13:23:13.859Z,23.70
2017-06-22T13:25:42.818Z,23.80
2017-06-22T13:28:11.018Z,23.80
2017-06-22T13:30:39.573Z,23.90
2017-06-22T13:33:07.737Z,23.90
2017-06-22T13:35:36.211Z,24.00
2017-06-22T13:38:04.683Z,24.20
2017-06-22T13:40:32.872Z,24.30
2017-06-22T13:43:01.058Z,24.50
2017-06-22T13:45:30.369Z,24.70
2017-06-22T13:47:58.575Z,24.70
2017-06-22T13:50:26.796Z,24.70
2017-06-22T13:52:55.382Z,24.90
2017-06-22T13:55:23.570Z,25.10
2017-06-22T13:57:51.793Z,25.20
2017-06-22T14:00:20.441Z,25.40
2017-06-22T14:02:48.653Z,25.40
2017-06-22T14:05:16.860Z,25.40
2017-06-22T14:07:45.544Z,25.50
2017-06-22T14:10:13.765Z,25.60
2017-06-22T14:12:42.765Z,25.60
2017-06-22T14:15:11.397Z,25.60
2017-06-22T14:17:39.610Z,25.60
2017-06-22T14:20:08.551Z,25.80
2017-06-22T14:22:37.075Z,25.80
2017-06-22T14:25:05.306Z,26.00
2017-06-22T14:27:33.498Z,26.20
2017-06-22T14:30:02.058Z,26.60
2017-06-22T14:32:30.253Z,26.70
2017-06-22T14:34:58.442Z,26.70
2017-06-22T14:37:27.540Z,26.80
2017-06-22T14:39:55.745Z,26.90
2017-06-22T14:42:23.927Z,27.00
2017-06-22T14:44:52.449Z,27.10
2017-06-22T14:47:20.636Z,27.20
2017-06-22T14:49:49.003Z,27.20
2017-06-22T14:52:19.017Z,27.30
2017-06-22T14:54:47.224Z,27.40
2017-06-22T14:57:16.188Z,27.40
2017-06-22T14:59:44.718Z,27.40
2017-06-22T15:02:13.009Z,27.40
2017-06-22T15:04:41.196Z,27.30
2017-06-22T15:07:09.795Z,27.20
2017-06-22T15:09:38.047Z,27.30
2017-06-22T15:12:06.236Z,27.40
2017-06-22T15:14:34.823Z,27.50
2017-06-22T15:17:03.025Z,27.70
2017-06-22T15:19:31.998Z,28.10
2017-06-22T15:22:00.515Z,28.00
2017-06-22T15:24:28.713Z,28.10
2017-06-22T15:26:56.870Z,28.30
2017-06-22T15:29:25.411Z,28.30
2017-06-22T15:31:53.653Z,28.20
2017-06-22T15:34:21.905Z,28.20
2017-06-22T15:36:50.435Z,28.20
2017-06-22T15:39:18.640Z,28.40
2017-06-22T15:41:47.625Z,28.80
2017-06-22T15:44:16.986Z,28.90
2017-06-22T15:46:45.223Z,28.90
2017-06-22T15:49:13.398Z,29.00
2017-06-22T15:51:42.143Z,29.10
2017-06-22T15:54:10.374Z,29.20
2017-06-22T15:56:38.556Z,29.20
2017-06-22T15:59:07.193Z,29.20
2017-06-22T16:01:36.222Z,29.10
2017-06-22T16:04:04.496Z,29.00
2017-06-22T16:06:33.043Z,29.00
2017-06-22T16:09:01.991Z,28.70
2017-06-22T16:11:30.230Z,28.70
2017-06-22T16:13:58.869Z,28.60
2017-06-22T16:16:27.943Z,28.50
2017-06-22T16:18:56.138Z,28.30
2017-06-22T16:21:24.714Z,28.20
2017-06-22T16:23:52.925Z,28.20
2017-06-22T16:26:21.850Z,28.00
2017-06-22T16:28:50.463Z,28.00
2017-06-22T16:31:19.658Z,28.00
2017-06-22T16:33:47.839Z,28.00
2017-06-22T16:36:16.389Z,28.00
2017-06-22T16:38:44.610Z,27.80
2017-06-22T16:41:13.578Z,27.30
2017-06-22T16:43:42.137Z,27.30
2017-06-22T16:46:10.400Z,26.90
2017-06-22T16:48:38.599Z,26.50
2017-06-22T16:51:07.203Z,26.30
2017-06-22T16:53:36.149Z,25.90
2017-06-22T16:56:04.338Z,25.90
2017-06-22T16:58:33.465Z,25.80
2017-06-22T17:01:01.666Z,25.60
2017-06-22T17:03:29.874Z,25.50
2017-06-22T17:05:58.626Z,25.40
2017-06-22T17:08:26.832Z,25.20
2017-06-22T17:10:55.053Z,23.40
2017-06-22T17:13:24.429Z,21.00
2017-06-22T17:15:52.634Z,20.90
2017-06-22T17:18:22.387Z,20.20
2017-06-22T17:20:50.938Z,20.10
2017-06-22T17:23:19.172Z,20.00
2017-06-22T17:25:47.371Z,20.00
2017-06-22T17:28:16.742Z,20.10
2017-06-22T17:30:44.970Z,20.00
2017-06-22T17:33:13.160Z,20.10
2017-06-22T17:35:41.757Z,20.00
2017-06-22T17:38:09.941Z,20.00
2017-06-22T17:40:38.942Z,20.00
2017-06-22T17:43:07.830Z,20.00
2017-06-22T17:45:36.030Z,20.00
2017-06-22T17:48:04.994Z,20.10
2017-06-22T17:50:33.579Z,20.10
2017-06-22T17:53:01.779Z,20.10
2017-06-22T17:55:30.739Z,20.20
2017-06-22T17:57:59.339Z,20.20
2017-06-22T18:00:27.547Z,20.20
2017-06-22T18:02:56.887Z,20.20
2017-06-22T18:05:26.402Z,20.10
2017-06-22T18:07:54.685Z,20.10
2017-06-22T18:10:22.935Z,20.10
2017-06-22T18:12:51.638Z,20.10
2017-06-22T18:15:19.854Z,20.10
2017-06-22T18:17:49.141Z,20.10
2017-06-22T18:20:17.929Z,20.10
2017-06-22T18:22:47.003Z,20.00
2017-06-22T18:25:15.216Z,20.00
2017-06-22T18:27:43.858Z,19.90
2017-06-22T18:30:12.326Z,19.90
2017-06-22T18:32:40.602Z,19.90
2017-06-22T18:35:09.166Z,19.90
2017-06-22T18:37:37.463Z,19.80
2017-06-22T18:40:05.651Z,19.70
2017-06-22T18:42:34.358Z,19.70
2017-06-22T18:45:03.338Z,19.70
2017-06-22T18:47:31.603Z,19.60
2017-06-22T18:50:00.170Z,19.60
2017-06-22T18:52:28.382Z,19.60
2017-06-22T18:54:57.350Z,19.50
2017-06-22T18:57:26.013Z,19.50
2017-06-22T18:59:54.283Z,19.50
2017-06-22T19:02:22.495Z,19.50
2017-06-22T19:04:51.019Z,19.50
2017-06-22T19:07:19.219Z,19.50
2017-06-22T19:09:47.436Z,19.50
2017-06-22T19:12:16.561Z,19.50
2017-06-22T19:14:44.741Z,19.50
2017-06-22T19:17:13.630Z,19.50
2017-06-22T19:19:42.179Z,19.50
2017-06-22T19:22:10.377Z,19.50
2017-06-22T19:24:38.599Z,19.50
2017-06-22T19:27:07.088Z,19.40
2017-06-22T19:29:36.716Z,19.40
2017-06-22T19:32:04.975Z,19.30
2017-06-22T19:34:33.652Z,19.30
2017-06-22T19:37:01.871Z,19.30
2017-06-22T19:39:30.106Z,19.30
2017-06-22T19:41:59.645Z,19.20
2017-06-22T19:44:27.954Z,19.20
2017-06-22T19:46:56.166Z,19.20
2017-06-22T19:49:26.180Z,19.20
2017-06-22T19:51:54.405Z,19.20
2017-06-22T19:54:22.656Z,19.20
2017-06-22T19:56:51.215Z,19.20
2017-06-22T19:59:20.255Z,19.20
2017-06-22T20:01:48.462Z,19.20
2017-06-22T20:04:17.018Z,19.20
2017-06-22T20:06:45.226Z,19.10
2017-06-22T20:09:14.241Z,19.20
2017-06-22T20:11:42.750Z,19.10
2017-06-22T20:14:10.978Z,19.20
2017-06-22T20:16:39.192Z,19.10
2017-06-22T20:19:07.793Z,19.20
2017-06-22T20:21:36.040Z,19.20
2017-06-22T20:24:04.259Z,19.20
2017-06-22T20:26:32.829Z,19.20
2017-06-22T20:29:01.047Z,19.20
2017-06-22T20:31:30.009Z,19.10
2017-06-22T20:33:58.527Z,19.10
2017-06-22T20:36:26.775Z,19.10
2017-06-22T20:38:54.992Z,19.10
2017-06-22T20:41:23.539Z,19.20
2017-06-22T20:43:51.757Z,19.20
2017-06-22T20:46:20.026Z,19.20
2017-06-22T20:48:48.745Z,19.20
2017-06-22T20:51:16.945Z,19.20
2017-06-22T20:53:45.158Z,19.20
2017-06-22T20:56:13.797Z,19.20
2017-06-22T20:58:42.023Z,19.20
2017-06-22T21:01:10.334Z,19.20
2017-06-22T21:03:38.912Z,19.20
2017-06-22T21:06:07.111Z,19.10
2017-06-22T21:08:35.340Z,19.10
2017-06-22T21:11:03.970Z,19.10
2017-06-22T21:13:33.026Z,19.10
2017-06-22T21:16:01.311Z,19.10
2017-06-22T21:18:30.071Z,19.10
2017-06-22T21:20:58.298Z,19.20
2017-06-22T21:23:27.602Z,19.20
2017-06-22T21:25:56.202Z,19.20
2017-06-22T21:28:24.609Z,19.20
2017-06-22T21:30:52.886Z,19.20
2017-06-22T21:33:21.574Z,19.30
2017-06-22T21:35:49.872Z,19.30
2017-06-22T21:38:18.104Z,19.30
2017-06-22T21:40:46.717Z,19.30
2017-06-22T21:43:14.921Z,19.30
2017-06-22T21:45:43.146Z,19.30
2017-06-22T21:48:11.938Z,19.40
2017-06-22T21:50:40.234Z,19.40
2017-06-22T21:53:08.426Z,19.40
2017-06-22T21:55:36.954Z,19.40
2017-06-22T21:58:05.104Z,19.40
2017-06-22T22:00:33.285Z,19.40
2017-06-22T22:03:02.613Z,19.30
2017-06-22T22:05:30.791Z,19.30
2017-06-22T22:07:58.998Z,19.40
2017-06-22T22:10:27.574Z,19.40
2017-06-22T22:12:55.816Z,19.30
2017-06-22T22:15:23.997Z,19.30
2017-06-22T22:17:52.626Z,19.30
2017-06-22T22:20:20.804Z,19.30
2017-06-22T22:22:49.003Z,19.30
2017-06-22T22:25:17.630Z,19.30
2017-06-22T22:27:45.820Z,19.40
2017-06-22T22:30:14.027Z,19.40
2017-06-22T22:32:42.616Z,19.40
2017-06-22T22:35:10.833Z,19.40
2017-06-22T22:37:39.040Z,19.40
2017-06-22T22:40:08.383Z,19.30
2017-06-22T22:42:36.551Z,19.30
2017-06-22T22:45:04.749Z,19.30
2017-06-22T22:47:33.323Z,19.30
2017-06-22T22:50:01.586Z,19.30
2017-06-22T22:52:29.813Z,19.30
2017-06-22T22:54:59.132Z,19.10
2017-06-22T22:57:27.330Z,19.10
2017-06-22T22:59:55.530Z,19.20
2017-06-22T23:02:24.023Z,19.10
2017-06-22T23:04:52.215Z,19.10
2017-06-22T23:07:20.384Z,19.10
2017-06-22T23:09:48.898Z,19.10
2017-06-22T23:12:17.155Z,19.10
2017-06-22T23:14:45.332Z,19.10
2017-06-22T23:17:14.583Z,19.00
2017-06-22T23:19:42.783Z,19.10
2017-06-22T23:22:11.802Z,19.00
2017-06-22T23:24:40.457Z,19.00
2017-06-22T23:27:08.623Z,18.90
2017-06-22T23:29:36.818Z,18.90
2017-06-22T23:32:05.349Z,18.90
2017-06-22T23:34:33.533Z,18.90
2017-06-22T23:37:01.733Z,18.80
2017-06-22T23:39:30.307Z,18.70
2017-06-22T23:41:58.466Z,18.60
2017-06-22T23:44:26.694Z,18.60
2017-06-22T23:46:55.316Z,18.50
2017-06-22T23:49:23.506Z,18.50
2017-06-22T23:51:51.734Z,18.40
2017-06-22T23:54:20.363Z,18.40
2017-06-22T23:56:48.566Z,18.30
2017-06-22T23:59:16.767Z,18.30
